sensor_id;sensor_type;location;lat;lon;timestamp;P1;durP1;ratioP1;P2;durP2;ratioP2
6376;SDS011;3221;48.858;10.128;2022-11-03T00:02:07;6.87;;;2.63;;
6376;SDS011;3221;48.858;10.128;2022-11-03T00:04:34;3.97;;;2.90;;
6376;SDS011;3221;48.858;10.128;2022-11-03T00:07:01;6.63;;;3.33;;
6376;SDS011;3221;48.858;10.128;2022-11-03T00:09:29;6.93;;;3.20;;
6376;SDS011;3221;48.858;10.128;2022-11-03T00:11:57;7.60;;;3.60;;
6376;SDS011;3221;48.858;10.128;2022-11-03T00:14:24;7.40;;;3.60;;
6376;SDS011;3221;48.858;10.128;2022-11-03T00:16:51;7.93;;;4.10;;
6376;SDS011;3221;48.858;10.128;2022-11-03T00:19:17;7.30;;;3.90;;
6376;SDS011;3221;48.858;10.128;2022-11-03T00:21:45;8.17;;;4.23;;
6376;SDS011;3221;48.858;10.128;2022-11-03T00:24:12;8.03;;;4.50;;
6376;SDS011;3221;48.858;10.128;2022-11-03T00:26:39;12.20;;;5.00;;
6376;SDS011;3221;48.858;10.128;2022-11-03T00:29:07;8.57;;;4.73;;
6376;SDS011;3221;48.858;10.128;2022-11-03T00:31:36;8.30;;;5.10;;
6376;SDS011;3221;48.858;10.128;2022-11-03T00:34:04;11.93;;;5.33;;
6376;SDS011;3221;48.858;10.128;2022-11-03T00:36:34;9.13;;;5.30;;
6376;SDS011;3221;48.858;10.128;2022-11-03T00:39:02;8.87;;;5.07;;
6376;SDS011;3221;48.858;10.128;2022-11-03T00:41:30;7.70;;;4.97;;
6376;SDS011;3221;48.858;10.128;2022-11-03T00:43:57;10.57;;;4.53;;
6376;SDS011;3221;48.858;10.128;2022-11-03T00:46:25;9.00;;;4.70;;
6376;SDS011;3221;48.858;10.128;2022-11-03T00:48:52;6.20;;;4.17;;
6376;SDS011;3221;48.858;10.128;2022-11-03T00:51:20;7.40;;;4.20;;
6376;SDS011;3221;48.858;10.128;2022-11-03T00:53:59;7.70;;;3.80;;
6376;SDS011;3221;48.858;10.128;2022-11-03T00:56:27;7.93;;;4.03;;
6376;SDS011;3221;48.858;10.128;2022-11-03T00:58:59;8.70;;;4.10;;
6376;SDS011;3221;48.858;10.128;2022-11-03T01:01:28;7.10;;;4.80;;
6376;SDS011;3221;48.858;10.128;2022-11-03T01:03:57;7.33;;;4.33;;
6376;SDS011;3221;48.858;10.128;2022-11-03T01:06:44;6.17;;;3.93;;
6376;SDS011;3221;48.858;10.128;2022-11-03T01:09:26;7.70;;;4.03;;
6376;SDS011;3221;48.858;10.128;2022-11-03T01:14:35;7.67;;;3.73;;
6376;SDS011;3221;48.858;10.128;2022-11-03T01:17:09;6.50;;;3.53;;
6376;SDS011;3221;48.858;10.128;2022-11-03T01:19:41;5.83;;;3.60;;
6376;SDS011;3221;48.858;10.128;2022-11-03T01:22:08;8.30;;;2.90;;
6376;SDS011;3221;48.858;10.128;2022-11-03T01:24:36;4.27;;;3.43;;
6376;SDS011;3221;48.858;10.128;2022-11-03T01:27:13;4.53;;;3.07;;
6376;SDS011;3221;48.858;10.128;2022-11-03T01:29:42;6.73;;;3.30;;
6376;SDS011;3221;48.858;10.128;2022-11-03T01:32:09;5.27;;;2.93;;
6376;SDS011;3221;48.858;10.128;2022-11-03T01:34:36;5.40;;;2.87;;
6376;SDS011;3221;48.858;10.128;2022-11-03T01:37:03;5.50;;;2.90;;
6376;SDS011;3221;48.858;10.128;2022-11-03T01:39:31;7.53;;;2.87;;
6376;SDS011;3221;48.858;10.128;2022-11-03T01:41:58;5.10;;;2.90;;
6376;SDS011;3221;48.858;10.128;2022-11-03T01:44:26;4.60;;;2.70;;
6376;SDS011;3221;48.858;10.128;2022-11-03T01:52:10;6.90;;;2.83;;
6376;SDS011;3221;48.858;10.128;2022-11-03T01:54:45;5.47;;;2.50;;
6376;SDS011;3221;48.858;10.128;2022-11-03T01:57:18;4.70;;;2.67;;
6376;SDS011;3221;48.858;10.128;2022-11-03T01:59:50;5.93;;;3.37;;
6376;SDS011;3221;48.858;10.128;2022-11-03T02:02:23;5.60;;;2.87;;
6376;SDS011;3221;48.858;10.128;2022-11-03T02:04:50;8.70;;;3.10;;
6376;SDS011;3221;48.858;10.128;2022-11-03T02:10:00;5.60;;;3.10;;
6376;SDS011;3221;48.858;10.128;2022-11-03T02:12:28;5.80;;;2.67;;
6376;SDS011;3221;48.858;10.128;2022-11-03T02:14:57;5.60;;;2.93;;
6376;SDS011;3221;48.858;10.128;2022-11-03T02:17:31;4.00;;;2.40;;
6376;SDS011;3221;48.858;10.128;2022-11-03T02:20:01;6.17;;;2.63;;
6376;SDS011;3221;48.858;10.128;2022-11-03T02:22:41;5.77;;;2.33;;
6376;SDS011;3221;48.858;10.128;2022-11-03T02:27:54;4.60;;;2.27;;
6376;SDS011;3221;48.858;10.128;2022-11-03T02:30:21;5.53;;;2.40;;
6376;SDS011;3221;48.858;10.128;2022-11-03T02:32:53;5.77;;;2.23;;
6376;SDS011;3221;48.858;10.128;2022-11-03T02:35:26;5.17;;;2.60;;
6376;SDS011;3221;48.858;10.128;2022-11-03T02:37:59;4.20;;;2.23;;
6376;SDS011;3221;48.858;10.128;2022-11-03T02:40:33;4.57;;;2.57;;
6376;SDS011;3221;48.858;10.128;2022-11-03T02:43:06;4.07;;;2.20;;
6376;SDS011;3221;48.858;10.128;2022-11-03T02:45:35;5.87;;;2.73;;
6376;SDS011;3221;48.858;10.128;2022-11-03T02:48:03;5.63;;;2.30;;
6376;SDS011;3221;48.858;10.128;2022-11-03T02:50:32;7.87;;;2.20;;
6376;SDS011;3221;48.858;10.128;2022-11-03T02:52:59;7.23;;;2.20;;
6376;SDS011;3221;48.858;10.128;2022-11-03T02:55:34;5.23;;;2.47;;
6376;SDS011;3221;48.858;10.128;2022-11-03T02:58:29;3.23;;;2.00;;
6376;SDS011;3221;48.858;10.128;2022-11-03T03:01:11;5.87;;;2.43;;
6376;SDS011;3221;48.858;10.128;2022-11-03T03:04:03;4.37;;;2.27;;
6376;SDS011;3221;48.858;10.128;2022-11-03T03:06:38;6.03;;;2.47;;
6376;SDS011;3221;48.858;10.128;2022-11-03T03:09:14;7.10;;;2.67;;
6376;SDS011;3221;48.858;10.128;2022-11-03T03:11:45;3.67;;;2.20;;
6376;SDS011;3221;48.858;10.128;2022-11-03T03:14:17;4.70;;;2.30;;
6376;SDS011;3221;48.858;10.128;2022-11-03T03:16:49;7.40;;;2.47;;
6376;SDS011;3221;48.858;10.128;2022-11-03T03:19:23;4.33;;;2.43;;
6376;SDS011;3221;48.858;10.128;2022-11-03T03:22:18;2.97;;;1.80;;
6376;SDS011;3221;48.858;10.128;2022-11-03T03:24:58;3.67;;;2.20;;
6376;SDS011;3221;48.858;10.128;2022-11-03T03:27:35;5.17;;;2.50;;
6376;SDS011;3221;48.858;10.128;2022-11-03T03:30:07;5.53;;;2.40;;
6376;SDS011;3221;48.858;10.128;2022-11-03T03:32:35;7.07;;;2.70;;
6376;SDS011;3221;48.858;10.128;2022-11-03T03:35:06;5.70;;;3.10;;
6376;SDS011;3221;48.858;10.128;2022-11-03T03:37:36;4.70;;;2.50;;
6376;SDS011;3221;48.858;10.128;2022-11-03T03:40:09;4.43;;;2.47;;
6376;SDS011;3221;48.858;10.128;2022-11-03T03:42:38;6.43;;;2.70;;
6376;SDS011;3221;48.858;10.128;2022-11-03T03:45:07;6.97;;;2.90;;
6376;SDS011;3221;48.858;10.128;2022-11-03T03:47:36;7.17;;;2.90;;
6376;SDS011;3221;48.858;10.128;2022-11-03T03:50:03;5.30;;;2.73;;
6376;SDS011;3221;48.858;10.128;2022-11-03T03:52:32;5.57;;;2.63;;
6376;SDS011;3221;48.858;10.128;2022-11-03T03:55:01;6.33;;;2.60;;
6376;SDS011;3221;48.858;10.128;2022-11-03T03:57:29;5.27;;;2.50;;
6376;SDS011;3221;48.858;10.128;2022-11-03T03:59:57;4.67;;;2.50;;
6376;SDS011;3221;48.858;10.128;2022-11-03T04:02:23;4.57;;;2.73;;
6376;SDS011;3221;48.858;10.128;2022-11-03T04:04:50;7.97;;;3.07;;
6376;SDS011;3221;48.858;10.128;2022-11-03T04:07:17;4.17;;;2.77;;
6376;SDS011;3221;48.858;10.128;2022-11-03T04:10:08;7.30;;;3.20;;
6376;SDS011;3221;48.858;10.128;2022-11-03T04:12:36;5.97;;;2.80;;
6376;SDS011;3221;48.858;10.128;2022-11-03T04:15:23;5.87;;;3.00;;
6376;SDS011;3221;48.858;10.128;2022-11-03T04:18:09;9.17;;;3.37;;
6376;SDS011;3221;48.858;10.128;2022-11-03T04:20:54;5.93;;;4.20;;
6376;SDS011;3221;48.858;10.128;2022-11-03T04:23:39;9.60;;;5.20;;
6376;SDS011;3221;48.858;10.128;2022-11-03T04:26:13;6.87;;;4.20;;
6376;SDS011;3221;48.858;10.128;2022-11-03T04:28:41;7.97;;;4.30;;
6376;SDS011;3221;48.858;10.128;2022-11-03T04:31:09;6.67;;;4.07;;
6376;SDS011;3221;48.858;10.128;2022-11-03T04:33:40;8.33;;;4.50;;
6376;SDS011;3221;48.858;10.128;2022-11-03T04:36:23;8.03;;;3.70;;
6376;SDS011;3221;48.858;10.128;2022-11-03T04:38:51;8.83;;;4.53;;
6376;SDS011;3221;48.858;10.128;2022-11-03T04:41:27;8.57;;;4.50;;
6376;SDS011;3221;48.858;10.128;2022-11-03T04:43:56;8.83;;;5.17;;
6376;SDS011;3221;48.858;10.128;2022-11-03T04:46:24;7.83;;;5.00;;
6376;SDS011;3221;48.858;10.128;2022-11-03T04:48:53;7.83;;;5.30;;
6376;SDS011;3221;48.858;10.128;2022-11-03T04:51:24;9.07;;;5.27;;
6376;SDS011;3221;48.858;10.128;2022-11-03T04:53:53;8.37;;;5.17;;
6376;SDS011;3221;48.858;10.128;2022-11-03T04:56:24;9.43;;;5.63;;
6376;SDS011;3221;48.858;10.128;2022-11-03T04:58:51;9.93;;;5.60;;
6376;SDS011;3221;48.858;10.128;2022-11-03T05:01:19;7.67;;;5.67;;
6376;SDS011;3221;48.858;10.128;2022-11-03T05:03:50;9.77;;;5.70;;
6376;SDS011;3221;48.858;10.128;2022-11-03T05:06:24;10.37;;;6.10;;
6376;SDS011;3221;48.858;10.128;2022-11-03T05:09:06;9.60;;;6.43;;
6376;SDS011;3221;48.858;10.128;2022-11-03T05:11:45;11.00;;;7.23;;
6376;SDS011;3221;48.858;10.128;2022-11-03T05:14:14;12.80;;;7.40;;
6376;SDS011;3221;48.858;10.128;2022-11-03T05:16:44;14.00;;;7.90;;
6376;SDS011;3221;48.858;10.128;2022-11-03T05:19:17;13.33;;;8.13;;
6376;SDS011;3221;48.858;10.128;2022-11-03T05:21:49;14.43;;;7.90;;
6376;SDS011;3221;48.858;10.128;2022-11-03T05:24:18;14.67;;;8.23;;
6376;SDS011;3221;48.858;10.128;2022-11-03T05:26:47;12.67;;;8.87;;
6376;SDS011;3221;48.858;10.128;2022-11-03T05:29:16;11.97;;;8.20;;
6376;SDS011;3221;48.858;10.128;2022-11-03T05:31:45;13.47;;;7.87;;
6376;SDS011;3221;48.858;10.128;2022-11-03T05:36:52;11.30;;;7.90;;
6376;SDS011;3221;48.858;10.128;2022-11-03T05:39:28;12.27;;;8.47;;
6376;SDS011;3221;48.858;10.128;2022-11-03T05:41:59;14.43;;;7.97;;
6376;SDS011;3221;48.858;10.128;2022-11-03T05:44:28;13.87;;;7.97;;
6376;SDS011;3221;48.858;10.128;2022-11-03T05:47:02;10.17;;;7.10;;
6376;SDS011;3221;48.858;10.128;2022-11-03T05:49:37;12.87;;;8.10;;
6376;SDS011;3221;48.858;10.128;2022-11-03T05:52:04;10.13;;;7.17;;
6376;SDS011;3221;48.858;10.128;2022-11-03T05:54:38;9.60;;;6.93;;
6376;SDS011;3221;48.858;10.128;2022-11-03T05:57:12;13.10;;;7.80;;
6376;SDS011;3221;48.858;10.128;2022-11-03T05:59:40;11.47;;;8.23;;
6376;SDS011;3221;48.858;10.128;2022-11-03T06:02:32;13.17;;;8.87;;
6376;SDS011;3221;48.858;10.128;2022-11-03T06:05:01;15.03;;;9.57;;
6376;SDS011;3221;48.858;10.128;2022-11-03T06:07:36;14.53;;;8.63;;
6376;SDS011;3221;48.858;10.128;2022-11-03T06:10:15;13.77;;;8.90;;
6376;SDS011;3221;48.858;10.128;2022-11-03T06:12:50;12.87;;;8.73;;
6376;SDS011;3221;48.858;10.128;2022-11-03T06:15:36;12.50;;;8.20;;
6376;SDS011;3221;48.858;10.128;2022-11-03T06:18:13;14.67;;;8.87;;
6376;SDS011;3221;48.858;10.128;2022-11-03T06:20:50;11.53;;;7.97;;
6376;SDS011;3221;48.858;10.128;2022-11-03T06:23:20;14.80;;;9.00;;
6376;SDS011;3221;48.858;10.128;2022-11-03T06:25:49;14.17;;;9.60;;
6376;SDS011;3221;48.858;10.128;2022-11-03T06:28:51;17.03;;;9.97;;
6376;SDS011;3221;48.858;10.128;2022-11-03T06:31:19;14.73;;;10.03;;
6376;SDS011;3221;48.858;10.128;2022-11-03T06:33:49;17.17;;;11.50;;
6376;SDS011;3221;48.858;10.128;2022-11-03T06:36:21;15.77;;;10.70;;
6376;SDS011;3221;48.858;10.128;2022-11-03T06:39:02;15.90;;;11.63;;
6376;SDS011;3221;48.858;10.128;2022-11-03T06:41:35;18.70;;;11.83;;
6376;SDS011;3221;48.858;10.128;2022-11-03T06:44:14;20.13;;;12.10;;
6376;SDS011;3221;48.858;10.128;2022-11-03T06:47:07;19.30;;;11.30;;
6376;SDS011;3221;48.858;10.128;2022-11-03T06:52:52;18.87;;;11.03;;
6376;SDS011;3221;48.858;10.128;2022-11-03T06:55:21;22.07;;;11.73;;
6376;SDS011;3221;48.858;10.128;2022-11-03T06:58:03;17.07;;;10.43;;
6376;SDS011;3221;48.858;10.128;2022-11-03T07:00:40;17.10;;;11.07;;
6376;SDS011;3221;48.858;10.128;2022-11-03T07:03:21;14.07;;;9.90;;
6376;SDS011;3221;48.858;10.128;2022-11-03T07:08:44;16.50;;;10.83;;
6376;SDS011;3221;48.858;10.128;2022-11-03T07:14:08;17.43;;;11.00;;
6376;SDS011;3221;48.858;10.128;2022-11-03T07:19:17;17.87;;;10.43;;
6376;SDS011;3221;48.858;10.128;2022-11-03T07:21:54;19.97;;;11.40;;
6376;SDS011;3221;48.858;10.128;2022-11-03T07:24:28;16.70;;;10.80;;
6376;SDS011;3221;48.858;10.128;2022-11-03T07:26:59;17.23;;;11.23;;
6376;SDS011;3221;48.858;10.128;2022-11-03T07:29:39;17.10;;;10.47;;
6376;SDS011;3221;48.858;10.128;2022-11-03T07:32:12;13.40;;;10.10;;
6376;SDS011;3221;48.858;10.128;2022-11-03T07:34:43;13.27;;;9.87;;
6376;SDS011;3221;48.858;10.128;2022-11-03T07:37:17;14.43;;;10.10;;
6376;SDS011;3221;48.858;10.128;2022-11-03T07:39:49;15.00;;;9.97;;
6376;SDS011;3221;48.858;10.128;2022-11-03T07:42:19;11.63;;;8.13;;
6376;SDS011;3221;48.858;10.128;2022-11-03T07:44:49;12.83;;;9.73;;
6376;SDS011;3221;48.858;10.128;2022-11-03T07:47:18;12.20;;;8.70;;
6376;SDS011;3221;48.858;10.128;2022-11-03T07:49:47;11.57;;;8.10;;
6376;SDS011;3221;48.858;10.128;2022-11-03T07:52:14;12.17;;;8.03;;
6376;SDS011;3221;48.858;10.128;2022-11-03T07:54:45;13.00;;;8.57;;
6376;SDS011;3221;48.858;10.128;2022-11-03T07:59:51;10.23;;;7.40;;
6376;SDS011;3221;48.858;10.128;2022-11-03T08:02:32;10.53;;;7.00;;
6376;SDS011;3221;48.858;10.128;2022-11-03T08:05:02;10.37;;;7.40;;
6376;SDS011;3221;48.858;10.128;2022-11-03T08:07:30;11.40;;;7.63;;
6376;SDS011;3221;48.858;10.128;2022-11-03T08:09:56;9.80;;;6.77;;
6376;SDS011;3221;48.858;10.128;2022-11-03T08:12:24;10.10;;;7.07;;
6376;SDS011;3221;48.858;10.128;2022-11-03T08:14:50;10.07;;;7.17;;
6376;SDS011;3221;48.858;10.128;2022-11-03T08:17:17;9.37;;;6.83;;
6376;SDS011;3221;48.858;10.128;2022-11-03T08:19:44;10.03;;;7.00;;
6376;SDS011;3221;48.858;10.128;2022-11-03T08:22:11;8.87;;;6.80;;
6376;SDS011;3221;48.858;10.128;2022-11-03T08:24:38;11.53;;;6.77;;
6376;SDS011;3221;48.858;10.128;2022-11-03T08:27:04;9.93;;;6.93;;
6376;SDS011;3221;48.858;10.128;2022-11-03T08:29:31;9.90;;;6.90;;
6376;SDS011;3221;48.858;10.128;2022-11-03T08:31:58;10.30;;;6.60;;
6376;SDS011;3221;48.858;10.128;2022-11-03T08:34:25;8.27;;;6.70;;
6376;SDS011;3221;48.858;10.128;2022-11-03T08:36:52;7.97;;;6.50;;
6376;SDS011;3221;48.858;10.128;2022-11-03T08:39:19;6.80;;;5.60;;
6376;SDS011;3221;48.858;10.128;2022-11-03T08:41:45;9.87;;;6.10;;
6376;SDS011;3221;48.858;10.128;2022-11-03T08:44:12;6.90;;;5.70;;
6376;SDS011;3221;48.858;10.128;2022-11-03T08:46:39;6.40;;;5.50;;
6376;SDS011;3221;48.858;10.128;2022-11-03T08:49:06;7.27;;;5.37;;
6376;SDS011;3221;48.858;10.128;2022-11-03T08:51:33;7.87;;;5.20;;
6376;SDS011;3221;48.858;10.128;2022-11-03T08:54:02;8.60;;;5.30;;
6376;SDS011;3221;48.858;10.128;2022-11-03T08:56:29;6.60;;;5.20;;
6376;SDS011;3221;48.858;10.128;2022-11-03T08:58:55;5.83;;;4.93;;
6376;SDS011;3221;48.858;10.128;2022-11-03T09:01:22;7.20;;;5.33;;
6376;SDS011;3221;48.858;10.128;2022-11-03T09:03:49;7.30;;;5.30;;
6376;SDS011;3221;48.858;10.128;2022-11-03T09:06:16;5.90;;;4.77;;
6376;SDS011;3221;48.858;10.128;2022-11-03T09:08:43;4.80;;;4.10;;
6376;SDS011;3221;48.858;10.128;2022-11-03T09:11:31;5.17;;;4.60;;
6376;SDS011;3221;48.858;10.128;2022-11-03T09:13:58;5.57;;;4.17;;
6376;SDS011;3221;48.858;10.128;2022-11-03T09:16:25;5.23;;;4.20;;
6376;SDS011;3221;48.858;10.128;2022-11-03T09:18:52;4.97;;;4.00;;
6376;SDS011;3221;48.858;10.128;2022-11-03T09:21:19;5.63;;;4.50;;
6376;SDS011;3221;48.858;10.128;2022-11-03T09:23:45;8.90;;;4.40;;
6376;SDS011;3221;48.858;10.128;2022-11-03T09:26:12;5.90;;;4.17;;
6376;SDS011;3221;48.858;10.128;2022-11-03T09:28:39;4.97;;;4.10;;
6376;SDS011;3221;48.858;10.128;2022-11-03T09:31:06;5.83;;;4.20;;
6376;SDS011;3221;48.858;10.128;2022-11-03T09:33:33;4.97;;;3.80;;
6376;SDS011;3221;48.858;10.128;2022-11-03T09:36:00;5.07;;;3.93;;
6376;SDS011;3221;48.858;10.128;2022-11-03T09:38:27;5.20;;;4.20;;
6376;SDS011;3221;48.858;10.128;2022-11-03T09:40:54;5.33;;;3.90;;
6376;SDS011;3221;48.858;10.128;2022-11-03T09:43:21;5.00;;;3.80;;
6376;SDS011;3221;48.858;10.128;2022-11-03T09:45:48;4.43;;;3.67;;
6376;SDS011;3221;48.858;10.128;2022-11-03T09:48:15;4.57;;;3.63;;
6376;SDS011;3221;48.858;10.128;2022-11-03T09:50:42;5.23;;;3.80;;
6376;SDS011;3221;48.858;10.128;2022-11-03T09:53:10;5.50;;;4.03;;
6376;SDS011;3221;48.858;10.128;2022-11-03T09:55:37;6.50;;;4.50;;
6376;SDS011;3221;48.858;10.128;2022-11-03T09:58:09;6.77;;;4.80;;
6376;SDS011;3221;48.858;10.128;2022-11-03T10:00:40;5.30;;;4.70;;
6376;SDS011;3221;48.858;10.128;2022-11-03T10:03:11;6.23;;;5.13;;
6376;SDS011;3221;48.858;10.128;2022-11-03T10:05:39;5.63;;;4.53;;
6376;SDS011;3221;48.858;10.128;2022-11-03T10:10:48;7.13;;;5.00;;
6376;SDS011;3221;48.858;10.128;2022-11-03T10:15:52;5.37;;;4.73;;
6376;SDS011;3221;48.858;10.128;2022-11-03T10:18:19;5.13;;;4.60;;
6376;SDS011;3221;48.858;10.128;2022-11-03T10:20:46;9.97;;;5.57;;
6376;SDS011;3221;48.858;10.128;2022-11-03T10:23:13;7.93;;;4.73;;
6376;SDS011;3221;48.858;10.128;2022-11-03T10:25:41;7.07;;;4.50;;
6376;SDS011;3221;48.858;10.128;2022-11-03T10:28:14;6.00;;;4.23;;
6376;SDS011;3221;48.858;10.128;2022-11-03T10:30:55;6.77;;;4.50;;
6376;SDS011;3221;48.858;10.128;2022-11-03T10:33:52;5.53;;;4.27;;
6376;SDS011;3221;48.858;10.128;2022-11-03T10:38:48;5.70;;;4.03;;
6376;SDS011;3221;48.858;10.128;2022-11-03T10:41:16;4.53;;;3.97;;
6376;SDS011;3221;48.858;10.128;2022-11-03T10:43:44;4.60;;;4.00;;
6376;SDS011;3221;48.858;10.128;2022-11-03T10:46:24;5.13;;;4.53;;
6376;SDS011;3221;48.858;10.128;2022-11-03T10:49:13;5.17;;;4.27;;
6376;SDS011;3221;48.858;10.128;2022-11-03T10:51:42;6.47;;;4.47;;
6376;SDS011;3221;48.858;10.128;2022-11-03T10:54:13;5.70;;;4.23;;
6376;SDS011;3221;48.858;10.128;2022-11-03T10:56:42;4.50;;;4.10;;
6376;SDS011;3221;48.858;10.128;2022-11-03T10:59:14;7.93;;;4.47;;
6376;SDS011;3221;48.858;10.128;2022-11-03T11:01:47;5.57;;;4.20;;
6376;SDS011;3221;48.858;10.128;2022-11-03T11:04:18;6.23;;;4.00;;
6376;SDS011;3221;48.858;10.128;2022-11-03T11:06:46;4.67;;;3.63;;
6376;SDS011;3221;48.858;10.128;2022-11-03T11:09:16;6.23;;;3.90;;
6376;SDS011;3221;48.858;10.128;2022-11-03T11:12:04;5.20;;;3.90;;
6376;SDS011;3221;48.858;10.128;2022-11-03T11:14:50;5.03;;;4.00;;
6376;SDS011;3221;48.858;10.128;2022-11-03T11:22:48;4.10;;;3.70;;
6376;SDS011;3221;48.858;10.128;2022-11-03T11:25:16;4.27;;;3.70;;
6376;SDS011;3221;48.858;10.128;2022-11-03T11:32:55;5.67;;;4.00;;
6376;SDS011;3221;48.858;10.128;2022-11-03T11:37:52;4.57;;;3.40;;
6376;SDS011;3221;48.858;10.128;2022-11-03T11:48:34;5.43;;;3.50;;
6376;SDS011;3221;48.858;10.128;2022-11-03T11:51:01;5.00;;;3.73;;
6376;SDS011;3221;48.858;10.128;2022-11-03T11:53:36;5.77;;;3.83;;
6376;SDS011;3221;48.858;10.128;2022-11-03T11:56:07;6.03;;;4.00;;
6376;SDS011;3221;48.858;10.128;2022-11-03T11:58:43;5.53;;;3.87;;
6376;SDS011;3221;48.858;10.128;2022-11-03T12:01:33;5.33;;;4.20;;
6376;SDS011;3221;48.858;10.128;2022-11-03T12:04:04;6.77;;;4.53;;
6376;SDS011;3221;48.858;10.128;2022-11-03T12:06:39;7.33;;;5.00;;
6376;SDS011;3221;48.858;10.128;2022-11-03T12:09:28;6.87;;;4.77;;
6376;SDS011;3221;48.858;10.128;2022-11-03T12:11:55;5.60;;;4.50;;
6376;SDS011;3221;48.858;10.128;2022-11-03T12:19:42;6.87;;;4.50;;
6376;SDS011;3221;48.858;10.128;2022-11-03T12:22:10;5.73;;;4.60;;
6376;SDS011;3221;48.858;10.128;2022-11-03T12:24:58;7.83;;;5.23;;
6376;SDS011;3221;48.858;10.128;2022-11-03T12:29:57;8.87;;;4.87;;
6376;SDS011;3221;48.858;10.128;2022-11-03T12:32:25;7.90;;;5.00;;
6376;SDS011;3221;48.858;10.128;2022-11-03T12:35:00;6.00;;;4.87;;
6376;SDS011;3221;48.858;10.128;2022-11-03T12:37:31;9.83;;;4.87;;
6376;SDS011;3221;48.858;10.128;2022-11-03T12:39:58;8.03;;;4.87;;
6376;SDS011;3221;48.858;10.128;2022-11-03T12:42:25;8.50;;;4.90;;
6376;SDS011;3221;48.858;10.128;2022-11-03T12:44:52;8.40;;;5.00;;
6376;SDS011;3221;48.858;10.128;2022-11-03T12:47:19;6.77;;;4.70;;
6376;SDS011;3221;48.858;10.128;2022-11-03T12:49:46;7.57;;;4.90;;
6376;SDS011;3221;48.858;10.128;2022-11-03T12:52:13;7.33;;;4.43;;
6376;SDS011;3221;48.858;10.128;2022-11-03T12:54:40;7.87;;;4.90;;
6376;SDS011;3221;48.858;10.128;2022-11-03T12:57:07;7.93;;;5.13;;
6376;SDS011;3221;48.858;10.128;2022-11-03T12:59:34;5.73;;;5.03;;
6376;SDS011;3221;48.858;10.128;2022-11-03T13:02:01;6.00;;;4.43;;
6376;SDS011;3221;48.858;10.128;2022-11-03T13:04:29;5.87;;;4.93;;
6376;SDS011;3221;48.858;10.128;2022-11-03T13:06:56;6.63;;;5.20;;
6376;SDS011;3221;48.858;10.128;2022-11-03T13:09:23;8.03;;;5.43;;
6376;SDS011;3221;48.858;10.128;2022-11-03T13:11:50;6.37;;;4.67;;
6376;SDS011;3221;48.858;10.128;2022-11-03T13:14:35;5.87;;;4.70;;
6376;SDS011;3221;48.858;10.128;2022-11-03T13:17:02;7.03;;;4.60;;
6376;SDS011;3221;48.858;10.128;2022-11-03T13:19:29;6.87;;;4.73;;
6376;SDS011;3221;48.858;10.128;2022-11-03T13:21:56;5.50;;;4.50;;
6376;SDS011;3221;48.858;10.128;2022-11-03T13:24:23;5.93;;;4.40;;
6376;SDS011;3221;48.858;10.128;2022-11-03T13:26:49;7.83;;;4.77;;
6376;SDS011;3221;48.858;10.128;2022-11-03T13:29:16;7.27;;;4.83;;
6376;SDS011;3221;48.858;10.128;2022-11-03T13:31:43;5.30;;;4.03;;
6376;SDS011;3221;48.858;10.128;2022-11-03T13:34:10;7.37;;;4.43;;
6376;SDS011;3221;48.858;10.128;2022-11-03T13:36:37;6.87;;;3.83;;
6376;SDS011;3221;48.858;10.128;2022-11-03T13:39:04;5.90;;;4.57;;
6376;SDS011;3221;48.858;10.128;2022-11-03T13:41:31;5.80;;;4.50;;
6376;SDS011;3221;48.858;10.128;2022-11-03T13:43:58;11.27;;;4.93;;
6376;SDS011;3221;48.858;10.128;2022-11-03T13:46:25;10.53;;;4.87;;
6376;SDS011;3221;48.858;10.128;2022-11-03T13:48:52;6.03;;;5.07;;
6376;SDS011;3221;48.858;10.128;2022-11-03T13:51:39;6.53;;;4.67;;
6376;SDS011;3221;48.858;10.128;2022-11-03T13:54:06;5.77;;;4.90;;
6376;SDS011;3221;48.858;10.128;2022-11-03T13:56:53;4.90;;;4.40;;
6376;SDS011;3221;48.858;10.128;2022-11-03T13:59:39;7.37;;;5.33;;
6376;SDS011;3221;48.858;10.128;2022-11-03T14:02:06;6.40;;;4.90;;
6376;SDS011;3221;48.858;10.128;2022-11-03T14:04:55;7.23;;;4.77;;
6376;SDS011;3221;48.858;10.128;2022-11-03T14:07:22;6.57;;;4.87;;
6376;SDS011;3221;48.858;10.128;2022-11-03T14:09:49;6.30;;;4.30;;
6376;SDS011;3221;48.858;10.128;2022-11-03T14:12:16;6.90;;;4.93;;
6376;SDS011;3221;48.858;10.128;2022-11-03T14:14:58;5.00;;;4.50;;
6376;SDS011;3221;48.858;10.128;2022-11-03T14:17:43;6.37;;;4.47;;
6376;SDS011;3221;48.858;10.128;2022-11-03T14:20:10;7.93;;;4.83;;
6376;SDS011;3221;48.858;10.128;2022-11-03T14:22:38;5.53;;;4.47;;
6376;SDS011;3221;48.858;10.128;2022-11-03T14:25:06;6.33;;;4.10;;
6376;SDS011;3221;48.858;10.128;2022-11-03T14:27:33;4.40;;;3.60;;
6376;SDS011;3221;48.858;10.128;2022-11-03T14:30:00;5.80;;;4.10;;
6376;SDS011;3221;48.858;10.128;2022-11-03T14:32:27;6.50;;;4.30;;
6376;SDS011;3221;48.858;10.128;2022-11-03T14:34:54;7.43;;;5.10;;
6376;SDS011;3221;48.858;10.128;2022-11-03T14:37:21;5.93;;;4.57;;
6376;SDS011;3221;48.858;10.128;2022-11-03T14:39:50;6.50;;;5.23;;
6376;SDS011;3221;48.858;10.128;2022-11-03T14:42:17;7.13;;;5.00;;
6376;SDS011;3221;48.858;10.128;2022-11-03T14:44:44;5.53;;;4.73;;
6376;SDS011;3221;48.858;10.128;2022-11-03T14:47:13;6.27;;;4.90;;
6376;SDS011;3221;48.858;10.128;2022-11-03T14:49:46;8.40;;;5.70;;
6376;SDS011;3221;48.858;10.128;2022-11-03T14:52:14;8.60;;;6.17;;
6376;SDS011;3221;48.858;10.128;2022-11-03T14:54:42;10.80;;;7.20;;
6376;SDS011;3221;48.858;10.128;2022-11-03T14:57:09;10.63;;;6.77;;
6376;SDS011;3221;48.858;10.128;2022-11-03T14:59:36;8.83;;;6.47;;
6376;SDS011;3221;48.858;10.128;2022-11-03T15:02:03;12.03;;;6.30;;
6376;SDS011;3221;48.858;10.128;2022-11-03T15:04:31;11.03;;;7.03;;
6376;SDS011;3221;48.858;10.128;2022-11-03T15:06:58;9.20;;;6.87;;
6376;SDS011;3221;48.858;10.128;2022-11-03T15:09:25;9.43;;;6.17;;
6376;SDS011;3221;48.858;10.128;2022-11-03T15:11:52;8.70;;;6.50;;
6376;SDS011;3221;48.858;10.128;2022-11-03T15:14:19;8.63;;;6.60;;
6376;SDS011;3221;48.858;10.128;2022-11-03T15:16:46;9.07;;;6.73;;
6376;SDS011;3221;48.858;10.128;2022-11-03T15:19:13;7.77;;;5.87;;
6376;SDS011;3221;48.858;10.128;2022-11-03T15:21:40;8.83;;;5.80;;
6376;SDS011;3221;48.858;10.128;2022-11-03T15:24:07;7.47;;;5.60;;
6376;SDS011;3221;48.858;10.128;2022-11-03T15:26:54;6.37;;;5.00;;
6376;SDS011;3221;48.858;10.128;2022-11-03T15:29:21;6.57;;;4.60;;
6376;SDS011;3221;48.858;10.128;2022-11-03T15:31:49;6.20;;;4.33;;
6376;SDS011;3221;48.858;10.128;2022-11-03T15:34:16;6.10;;;4.73;;
6376;SDS011;3221;48.858;10.128;2022-11-03T15:36:43;7.43;;;4.50;;
6376;SDS011;3221;48.858;10.128;2022-11-03T15:39:10;7.33;;;5.17;;
6376;SDS011;3221;48.858;10.128;2022-11-03T15:41:38;10.13;;;5.07;;
6376;SDS011;3221;48.858;10.128;2022-11-03T15:44:05;8.17;;;5.77;;
6376;SDS011;3221;48.858;10.128;2022-11-03T15:46:32;12.27;;;5.77;;
6376;SDS011;3221;48.858;10.128;2022-11-03T15:49:01;9.03;;;5.57;;
6376;SDS011;3221;48.858;10.128;2022-11-03T15:51:28;8.27;;;6.23;;
6376;SDS011;3221;48.858;10.128;2022-11-03T15:53:55;12.67;;;7.40;;
6376;SDS011;3221;48.858;10.128;2022-11-03T15:56:27;9.63;;;6.60;;
6376;SDS011;3221;48.858;10.128;2022-11-03T15:58:55;8.43;;;6.60;;
6376;SDS011;3221;48.858;10.128;2022-11-03T16:01:22;12.27;;;7.30;;
6376;SDS011;3221;48.858;10.128;2022-11-03T16:04:02;8.77;;;6.67;;
6376;SDS011;3221;48.858;10.128;2022-11-03T16:06:29;8.53;;;6.57;;
6376;SDS011;3221;48.858;10.128;2022-11-03T16:09:15;8.67;;;6.67;;
6376;SDS011;3221;48.858;10.128;2022-11-03T16:11:42;12.07;;;6.90;;
6376;SDS011;3221;48.858;10.128;2022-11-03T16:14:09;7.43;;;5.40;;
6376;SDS011;3221;48.858;10.128;2022-11-03T16:16:36;9.43;;;6.47;;
6376;SDS011;3221;48.858;10.128;2022-11-03T16:19:03;8.50;;;6.60;;
6376;SDS011;3221;48.858;10.128;2022-11-03T16:21:30;10.47;;;7.00;;
6376;SDS011;3221;48.858;10.128;2022-11-03T16:23:57;10.77;;;7.27;;
6376;SDS011;3221;48.858;10.128;2022-11-03T16:26:24;8.93;;;7.10;;
6376;SDS011;3221;48.858;10.128;2022-11-03T16:28:51;10.13;;;7.27;;